Terminal Aerodrome Forecast
Issued by NWS

Home | Current Version | Previous Version | Text Only | Print | Product List | Glossary On
Versions: 1 2 3 4 5 6 7 8 9 10 11 12 13
429
FTUS42 TJSJ 251740
TAFJPS
TAF
TJPS 251740Z 2518/2618 16010KT P6SM VCSH SCT035 BKN050 BKN250
     FM260000 08008KT P6SM VCSH SCT020 BKN050 BKN250
     FM261500 14010KT P6SM SCT025 BKN250
      AMD NOT SKED TIL 260300=

USA.gov is the U.S. government's official web portal to all federal, state and local government web resources and services.